Hegurashima, Japan

2:38 PM JST on September 23, 2014 (GMT +0900)
NOTO | Change Station
CLOSE
Current Station
Airport
Location: NOTO,
Elevation: 715 ft
Nearby Weather Stations

Elev 715 ft 37.29 °N, 136.96 °E | Updated 1 hour ago

Partly Cloudy
Partly Cloudy
73 °F
Feels Like 73 °F
N
6
Wind Variable Wind from ESE

Today
High -- | Low -- °F
--% Chance of Precip.
Yesterday
High -- | Low -- °F
Precip. -- in
5:40 AM 5:48 PM
Waning Crescent, 1% visible
Pressure 30.12 in
Visibility 6.2 miles
Clouds Few 3500 ft
Dew Point 59 °F
Humidity 61%
Rainfall 0.00 in
Snow Depth Not available.
UV 6 out of 12
Pollen Not available.
Air Quality Not available.
Flu Activity Not available.
METAR RJNW 230400Z 11005KT 9999 FEW035 SCT/// 23/15 Q1020

More Conditions Fewer Conditions

Pressure 30.12 in
Visibility 6.2 miles
Clouds Few 3500 ft
Dew Point 59 °F
Humidity 61%
Rainfall 0.00 in
Snow Depth Not available.
UV 6 out of 12
Pollen Not available.
Air Quality Not available.
Flu Activity Not available.
METAR RJNW 230400Z 11005KT 9999 FEW035 SCT/// 23/15 Q1020

More Conditions Fewer Conditions

10-Day Weather Forecast

Almanac

Astronomy

Sep. 23, 2014 Rise Set
Actual Time 5:40 AM JST 5:48 PM JST
Civil Twilight 5:14 AM JST 6:14 PM JST
Nautical Twilight 4:43 AM JST 6:45 PM JST
Astronomical Twilight 4:12 AM JST 7:16 PM JST
Moon 4:30 AM JST 5:07 PM JST
Length of Visible Light 13h 00m
Length of Day
12h 08m
Tomorrow will be 2m 25s shorter.
Waning Crescent, 1% of the Moon is Illuminated
Today
Waning Crescent
Sep 24
New
Oct 1
First Quarter
Oct 8
Full
Oct 15
Last Quarter

Yesterday's Extremes

Country Highs Country Lows

Community

WunderPhotos

Upload Photos

1,755,606 photos uploaded!

Nearby

Snow Depth

Not available.

Earthquake Activity

City Distance Mag. Time & Date
No recent earthquake activity has been reported nearby.
Minimum magnitude displayed is 2.5.

Coastal Water Temperatures

Place Temperature
No Stations Reporting

Nearby Weather Stations